地図

経路データ

SID SEASON NUMBER BASIN SUBBASIN NAME ISO_TIME NATURE LAT LON WMO_WIND WMO_PRES WMO_AGENCY TRACK_TYPE DIST2LAND LANDFALL IFLAG USA_AGENCY USA_ATCF_ID USA_LAT USA_LON USA_RECORD USA_STATUS USA_WIND USA_PRES USA_SSHS USA_R34_NE USA_R34_SE USA_R34_SW USA_R34_NW USA_R50_NE USA_R50_SE USA_R50_SW USA_R50_NW USA_R64_NE USA_R64_SE USA_R64_SW USA_R64_NW USA_POCI USA_ROCI USA_RMW USA_EYE TOKYO_LAT TOKYO_LON TOKYO_GRADE TOKYO_WIND TOKYO_PRES TOKYO_R50_DIR TOKYO_R50_LONG TOKYO_R50_SHORT TOKYO_R30_DIR TOKYO_R30_LONG TOKYO_R30_SHORT TOKYO_LAND CMA_LAT CMA_LON CMA_CAT CMA_WIND CMA_PRES HKO_LAT HKO_LON HKO_CAT HKO_WIND HKO_PRES NEWDELHI_LAT NEWDELHI_LON NEWDELHI_GRADE NEWDELHI_WIND NEWDELHI_PRES NEWDELHI_CI NEWDELHI_DP NEWDELHI_POCI REUNION_LAT REUNION_LON REUNION_TYPE REUNION_WIND REUNION_PRES REUNION_TNUM REUNION_CI REUNION_RMW REUNION_R34_NE REUNION_R34_SE REUNION_R34_SW REUNION_R34_NW REUNION_R50_NE REUNION_R50_SE REUNION_R50_SW REUNION_R50_NW REUNION_R64_NE REUNION_R64_SE REUNION_R64_SW REUNION_R64_NW BOM_LAT BOM_LON BOM_TYPE BOM_WIND BOM_PRES BOM_TNUM BOM_CI BOM_RMW BOM_R34_NE BOM_R34_SE BOM_R34_SW BOM_R34_NW BOM_R50_NE BOM_R50_SE BOM_R50_SW BOM_R50_NW BOM_R64_NE BOM_R64_SE BOM_R64_SW BOM_R64_NW BOM_ROCI BOM_POCI BOM_EYE BOM_POS_METHOD BOM_PRES_METHOD NADI_LAT NADI_LON NADI_CAT NADI_WIND NADI_PRES WELLINGTON_LAT WELLINGTON_LON WELLINGTON_WIND WELLINGTON_PRES DS824_LAT DS824_LON DS824_STAGE DS824_WIND DS824_PRES TD9636_LAT TD9636_LON TD9636_STAGE TD9636_WIND TD9636_PRES TD9635_LAT TD9635_LON TD9635_WIND TD9635_PRES TD9635_ROCI NEUMANN_LAT NEUMANN_LON NEUMANN_CLASS NEUMANN_WIND NEUMANN_PRES MLC_LAT MLC_LON MLC_CLASS MLC_WIND MLC_PRES USA_GUST BOM_GUST BOM_GUST_PER REUNION_GUST REUNION_GUST_PER USA_SEAHGT USA_SEARAD_NE USA_SEARAD_SE USA_SEARAD_SW USA_SEARAD_NW STORM_SPEED STORM_DIR
1956256N24284 1956 88 NA NA ETHEL 1956-09-11 18:00:00 TS 23.5000 -75.7000 25 hurdat_atl main 231 221 O_____________ hurdat_atl AL061956 23.5000 -75.7000 TD 25 -1 5 15
1956256N24284 1956 88 NA NA ETHEL 1956-09-11 21:00:00 TS 23.7225 -75.6349 main 231 223 P_____________ AL061956 23.7225 -75.6349 TD 27 -1 5 20
1956256N24284 1956 88 NA NA ETHEL 1956-09-12 00:00:00 TS 24.0000 -75.5000 30 hurdat_atl main 229 227 O_____________ hurdat_atl AL061956 24.0000 -75.5000 TD 30 -1 7 29
1956256N24284 1956 88 NA NA ETHEL 1956-09-12 03:00:00 TS 24.3700 -75.2449 main 253 252 P_____________ AL061956 24.3700 -75.2449 TD 32 -1 10 34
1956256N24284 1956 88 NA NA ETHEL 1956-09-12 06:00:00 TS 24.8000 -74.9000 35 hurdat_atl main 284 284 O_____________ hurdat_atl AL061956 24.8000 -74.9000 TS 35 0 11 37
1956256N24284 1956 88 NA NA ETHEL 1956-09-12 09:00:00 TS 25.2424 -74.5223 main 331 331 P_____________ AL061956 25.2424 -74.5223 TS 37 0 12 39
1956256N24284 1956 88 NA NA ETHEL 1956-09-12 12:00:00 TS 25.7000 -74.1000 40 hurdat_atl main 386 386 O_____________ hurdat_atl AL061956 25.7000 -74.1000 TS 40 0 12 41
1956256N24284 1956 88 NA NA ETHEL 1956-09-12 15:00:00 TS 26.1652 -73.6277 main 453 453 P_____________ AL061956 26.1652 -73.6277 TS 45 0 12 42
1956256N24284 1956 88 NA NA ETHEL 1956-09-12 18:00:00 TS 26.6000 -73.2000 50 999 hurdat_atl main 507 507 O_____________ hurdat_atl AL061956 26.6000 -73.2000 TS 50 999 0 10 38
1956256N24284 1956 88 NA NA ETHEL 1956-09-12 21:00:00 TS 26.9798 -72.9121 main 551 551 P_____________ AL061956 26.9798 -72.9121 TS 50 0 8 32
1956256N24284 1956 88 NA NA ETHEL 1956-09-13 00:00:00 TS 27.3000 -72.7000 50 hurdat_atl main 582 582 O_____________ hurdat_atl AL061956 27.3000 -72.7000 TS 50 0 7 33
1956256N24284 1956 88 NA NA ETHEL 1956-09-13 03:00:00 TS 27.5725 -72.4849 main 614 614 P_____________ AL061956 27.5725 -72.4849 TS 47 0 6 35
1956256N24284 1956 88 NA NA ETHEL 1956-09-13 06:00:00 TS 27.8000 -72.3000 45 hurdat_atl main 642 642 O_____________ hurdat_atl AL061956 27.8000 -72.3000 TS 45 0 5 35
1956256N24284 1956 88 NA NA ETHEL 1956-09-13 09:00:00 TS 28.0075 -72.1349 main 669 669 P_____________ AL061956 28.0075 -72.1349 TS 40 0 5 34
1956256N24284 1956 88 NA NA ETHEL 1956-09-13 12:00:00 TS 28.2000 -72.0000 35 1007 hurdat_atl main 688 688 O_____________ hurdat_atl AL061956 28.2000 -72.0000 TS 35 1007 0 5 29
1956256N24284 1956 88 NA NA ETHEL 1956-09-13 15:00:00 TS 28.4000 -71.8850 main 708 708 P_____________ AL061956 28.4000 -71.8850 TS 35 0 4 24
1956256N24284 1956 88 NA NA ETHEL 1956-09-13 18:00:00 TS 28.6000 -71.8000 35 hurdat_atl main 728 728 O_____________ hurdat_atl AL061956 28.6000 -71.8000 TS 35 0 4 18
1956256N24284 1956 88 NA NA ETHEL 1956-09-13 21:00:00 TS 28.8000 -71.7350 main 748 748 P_____________ AL061956 28.8000 -71.7350 TS 32 -1 4 12
1956256N24284 1956 88 NA NA ETHEL 1956-09-14 00:00:00 TS 29.0000 -71.7000 30 hurdat_atl main 760 760 O_____________ hurdat_atl AL061956 29.0000 -71.7000 TD 30 -1 4 5
1956256N24284 1956 88 NA NA ETHEL 1956-09-14 03:00:00 TS 29.2000 -71.6925 main 761 743 P_____________ AL061956 29.2000 -71.6925 TD 27 -1 4 0
1956256N24284 1956 88 NA NA ETHEL 1956-09-14 06:00:00 TS 29.4000 -71.7000 25 hurdat_atl main 743 O_____________ hurdat_atl AL061956 29.4000 -71.7000 TD 25 -1 4 352

IBTrACS Databaseについて

本データベースは、米国NOAAが公開する1842年以降の世界の熱帯低気圧のベストトラックデータアーカイブInternational Best Track Archive for Climate Stewardship (IBTrACS)を、ウェブで閲覧しやすい形式に変換したものです。

最終更新日:2021-11-26